sensor_id;sensor_type;location;lat;lon;timestamp;temperature;humidity
9941;DHT22;5009;50.656;7.188;2023-12-22T04:49:54;6.80;99.90
9941;DHT22;5009;50.656;7.188;2023-12-22T04:52:20;6.80;99.90
9941;DHT22;5009;50.656;7.188;2023-12-22T04:54:45;6.80;99.90
9941;DHT22;5009;50.656;7.188;2023-12-22T04:57:11;6.80;99.90
9941;DHT22;5009;50.656;7.188;2023-12-22T04:59:36;6.80;99.90
9941;DHT22;5009;50.656;7.188;2023-12-22T05:02:02;6.80;99.90
9941;DHT22;5009;50.656;7.188;2023-12-22T05:04:28;6.90;99.90
9941;DHT22;5009;50.656;7.188;2023-12-22T05:06:53;6.90;99.90
9941;DHT22;5009;50.656;7.188;2023-12-22T05:09:19;6.80;99.90
9941;DHT22;5009;50.656;7.188;2023-12-22T05:11:44;6.80;99.90
9941;DHT22;5009;50.656;7.188;2023-12-22T05:14:10;6.80;99.90
9941;DHT22;5009;50.656;7.188;2023-12-22T05:16:36;6.80;99.90
9941;DHT22;5009;50.656;7.188;2023-12-22T05:21:35;6.90;99.90
9941;DHT22;5009;50.656;7.188;2023-12-22T05:24:00;6.90;99.90
9941;DHT22;5009;50.656;7.188;2023-12-22T05:26:26;6.90;99.90
9941;DHT22;5009;50.656;7.188;2023-12-22T05:28:55;7.00;99.90
9941;DHT22;5009;50.656;7.188;2023-12-22T05:31:21;7.00;99.90
9941;DHT22;5009;50.656;7.188;2023-12-22T05:33:47;7.00;99.90
9941;DHT22;5009;50.656;7.188;2023-12-22T05:36:13;7.10;99.90
9941;DHT22;5009;50.656;7.188;2023-12-22T05:38:39;7.10;99.90
9941;DHT22;5009;50.656;7.188;2023-12-22T05:41:05;7.20;99.90
9941;DHT22;5009;50.656;7.188;2023-12-22T05:43:32;7.20;99.90
9941;DHT22;5009;50.656;7.188;2023-12-22T05:45:58;7.30;99.90
9941;DHT22;5009;50.656;7.188;2023-12-22T05:48:25;7.30;99.90
9941;DHT22;5009;50.656;7.188;2023-12-22T05:50:51;7.50;99.90
9941;DHT22;5009;50.656;7.188;2023-12-22T05:53:16;7.60;99.90
9941;DHT22;5009;50.656;7.188;2023-12-22T05:55:42;7.70;99.90
9941;DHT22;5009;50.656;7.188;2023-12-22T05:58:08;7.70;99.90
9941;DHT22;5009;50.656;7.188;2023-12-22T06:00:34;7.80;99.90
9941;DHT22;5009;50.656;7.188;2023-12-22T06:03:01;7.80;99.90
9941;DHT22;5009;50.656;7.188;2023-12-22T06:05:26;7.80;99.90
9941;DHT22;5009;50.656;7.188;2023-12-22T06:07:52;7.80;99.90
9941;DHT22;5009;50.656;7.188;2023-12-22T06:10:17;7.70;99.90
9941;DHT22;5009;50.656;7.188;2023-12-22T06:12:44;7.80;99.90
9941;DHT22;5009;50.656;7.188;2023-12-22T06:15:09;7.80;99.90
9941;DHT22;5009;50.656;7.188;2023-12-22T06:17:35;7.80;99.90
9941;DHT22;5009;50.656;7.188;2023-12-22T06:20:01;7.80;99.90
9941;DHT22;5009;50.656;7.188;2023-12-22T06:22:26;7.80;99.90
9941;DHT22;5009;50.656;7.188;2023-12-22T06:24:52;7.80;99.90
9941;DHT22;5009;50.656;7.188;2023-12-22T06:27:17;7.80;99.90
9941;DHT22;5009;50.656;7.188;2023-12-22T06:29:43;7.80;99.90
9941;DHT22;5009;50.656;7.188;2023-12-22T06:32:09;7.80;99.90
9941;DHT22;5009;50.656;7.188;2023-12-22T06:34:34;7.90;99.90
9941;DHT22;5009;50.656;7.188;2023-12-22T06:37:00;7.90;99.90
9941;DHT22;5009;50.656;7.188;2023-12-22T06:39:26;7.90;99.90
9941;DHT22;5009;50.656;7.188;2023-12-22T06:41:51;7.80;99.90
9941;DHT22;5009;50.656;7.188;2023-12-22T06:44:17;7.90;99.90
9941;DHT22;5009;50.656;7.188;2023-12-22T06:46:42;7.90;99.90
9941;DHT22;5009;50.656;7.188;2023-12-22T06:49:08;7.90;99.90
9941;DHT22;5009;50.656;7.188;2023-12-22T06:51:33;7.90;99.90
9941;DHT22;5009;50.656;7.188;2023-12-22T06:54:03;7.90;99.90
9941;DHT22;5009;50.656;7.188;2023-12-22T06:56:32;7.90;99.90
9941;DHT22;5009;50.656;7.188;2023-12-22T06:59:00;8.00;99.90
9941;DHT22;5009;50.656;7.188;2023-12-22T07:01:30;7.90;99.90
9941;DHT22;5009;50.656;7.188;2023-12-22T07:03:57;7.90;99.90
9941;DHT22;5009;50.656;7.188;2023-12-22T07:06:24;7.90;99.90
9941;DHT22;5009;50.656;7.188;2023-12-22T07:11:42;7.90;99.90
9941;DHT22;5009;50.656;7.188;2023-12-22T07:14:07;7.90;99.90
9941;DHT22;5009;50.656;7.188;2023-12-22T07:16:34;7.90;99.90
9941;DHT22;5009;50.656;7.188;2023-12-22T07:18:59;7.80;99.90
9941;DHT22;5009;50.656;7.188;2023-12-22T07:21:26;7.80;99.90
9941;DHT22;5009;50.656;7.188;2023-12-22T07:23:51;7.70;99.90
9941;DHT22;5009;50.656;7.188;2023-12-22T07:26:17;7.70;99.90
9941;DHT22;5009;50.656;7.188;2023-12-22T07:28:42;7.60;99.90
9941;DHT22;5009;50.656;7.188;2023-12-22T07:31:08;7.60;99.90
9941;DHT22;5009;50.656;7.188;2023-12-22T07:33:33;7.60;99.90
9941;DHT22;5009;50.656;7.188;2023-12-22T07:35:59;7.60;99.90
9941;DHT22;5009;50.656;7.188;2023-12-22T07:38:25;7.60;99.90
9941;DHT22;5009;50.656;7.188;2023-12-22T07:40:50;7.60;99.90
9941;DHT22;5009;50.656;7.188;2023-12-22T07:43:16;7.60;99.90
9941;DHT22;5009;50.656;7.188;2023-12-22T07:45:42;7.60;99.90
9941;DHT22;5009;50.656;7.188;2023-12-22T07:48:07;7.60;99.90
9941;DHT22;5009;50.656;7.188;2023-12-22T07:50:33;7.60;99.90
9941;DHT22;5009;50.656;7.188;2023-12-22T07:52:59;7.50;99.90
9941;DHT22;5009;50.656;7.188;2023-12-22T07:55:25;7.50;99.90
9941;DHT22;5009;50.656;7.188;2023-12-22T07:57:50;7.60;99.90
9941;DHT22;5009;50.656;7.188;2023-12-22T08:00:17;7.60;99.90
9941;DHT22;5009;50.656;7.188;2023-12-22T08:02:43;7.70;99.90
9941;DHT22;5009;50.656;7.188;2023-12-22T08:05:09;7.70;99.90
9941;DHT22;5009;50.656;7.188;2023-12-22T08:07:35;7.70;99.90
9941;DHT22;5009;50.656;7.188;2023-12-22T08:10:01;7.80;99.90
9941;DHT22;5009;50.656;7.188;2023-12-22T08:12:27;7.80;99.90
9941;DHT22;5009;50.656;7.188;2023-12-22T08:14:53;7.80;99.90
9941;DHT22;5009;50.656;7.188;2023-12-22T08:17:19;7.90;99.90
9941;DHT22;5009;50.656;7.188;2023-12-22T08:19:45;7.90;99.90
9941;DHT22;5009;50.656;7.188;2023-12-22T08:22:10;7.90;99.90
9941;DHT22;5009;50.656;7.188;2023-12-22T08:24:38;7.80;99.90
9941;DHT22;5009;50.656;7.188;2023-12-22T08:27:05;7.80;99.90
9941;DHT22;5009;50.656;7.188;2023-12-22T08:29:32;7.90;99.90
9941;DHT22;5009;50.656;7.188;2023-12-22T08:31:57;7.90;99.90
9941;DHT22;5009;50.656;7.188;2023-12-22T08:34:23;7.90;99.90
9941;DHT22;5009;50.656;7.188;2023-12-22T08:36:49;7.90;99.90
9941;DHT22;5009;50.656;7.188;2023-12-22T08:39:14;8.00;99.90
9941;DHT22;5009;50.656;7.188;2023-12-22T08:41:40;8.10;99.90
9941;DHT22;5009;50.656;7.188;2023-12-22T08:44:06;8.10;99.90
9941;DHT22;5009;50.656;7.188;2023-12-22T08:46:32;8.10;99.90
9941;DHT22;5009;50.656;7.188;2023-12-22T08:48:58;8.10;99.90
9941;DHT22;5009;50.656;7.188;2023-12-22T08:51:28;8.20;99.90
9941;DHT22;5009;50.656;7.188;2023-12-22T08:53:54;8.20;99.90
9941;DHT22;5009;50.656;7.188;2023-12-22T08:56:21;8.20;99.90
9941;DHT22;5009;50.656;7.188;2023-12-22T08:58:47;8.20;99.90
9941;DHT22;5009;50.656;7.188;2023-12-22T09:01:16;8.20;99.90
9941;DHT22;5009;50.656;7.188;2023-12-22T09:03:42;8.20;99.90
9941;DHT22;5009;50.656;7.188;2023-12-22T09:06:18;8.30;99.90
9941;DHT22;5009;50.656;7.188;2023-12-22T09:08:44;8.30;99.90
9941;DHT22;5009;50.656;7.188;2023-12-22T09:11:15;8.40;99.90
9941;DHT22;5009;50.656;7.188;2023-12-22T09:13:41;8.40;99.90
9941;DHT22;5009;50.656;7.188;2023-12-22T09:16:07;8.40;99.90
9941;DHT22;5009;50.656;7.188;2023-12-22T09:18:33;8.50;99.90
9941;DHT22;5009;50.656;7.188;2023-12-22T09:20:59;8.50;99.90
9941;DHT22;5009;50.656;7.188;2023-12-22T09:23:24;8.50;99.90
9941;DHT22;5009;50.656;7.188;2023-12-22T09:25:50;8.60;99.90
9941;DHT22;5009;50.656;7.188;2023-12-22T09:28:16;8.60;99.90
9941;DHT22;5009;50.656;7.188;2023-12-22T09:30:41;8.60;99.90
9941;DHT22;5009;50.656;7.188;2023-12-22T09:33:09;8.60;99.90
9941;DHT22;5009;50.656;7.188;2023-12-22T09:35:34;8.70;99.90
9941;DHT22;5009;50.656;7.188;2023-12-22T09:38:01;8.70;99.90
9941;DHT22;5009;50.656;7.188;2023-12-22T09:40:26;8.70;99.90
9941;DHT22;5009;50.656;7.188;2023-12-22T09:42:55;8.70;99.90
9941;DHT22;5009;50.656;7.188;2023-12-22T09:45:21;8.80;99.90
9941;DHT22;5009;50.656;7.188;2023-12-22T09:47:48;8.80;99.90
9941;DHT22;5009;50.656;7.188;2023-12-22T09:50:15;8.90;99.90
9941;DHT22;5009;50.656;7.188;2023-12-22T09:52:42;9.00;99.90
9941;DHT22;5009;50.656;7.188;2023-12-22T09:55:14;9.00;99.90
9941;DHT22;5009;50.656;7.188;2023-12-22T09:57:40;9.00;99.90
9941;DHT22;5009;50.656;7.188;2023-12-22T10:00:10;9.00;99.90
9941;DHT22;5009;50.656;7.188;2023-12-22T10:02:39;9.00;99.90
9941;DHT22;5009;50.656;7.188;2023-12-22T10:05:04;9.00;99.90
9941;DHT22;5009;50.656;7.188;2023-12-22T10:07:30;9.00;99.90
9941;DHT22;5009;50.656;7.188;2023-12-22T10:09:57;9.10;99.90
9941;DHT22;5009;50.656;7.188;2023-12-22T10:12:25;9.10;99.90
9941;DHT22;5009;50.656;7.188;2023-12-22T10:14:53;9.10;99.90
9941;DHT22;5009;50.656;7.188;2023-12-22T10:17:19;9.10;99.90
9941;DHT22;5009;50.656;7.188;2023-12-22T10:19:45;9.10;99.90
9941;DHT22;5009;50.656;7.188;2023-12-22T10:22:10;9.20;99.90
9941;DHT22;5009;50.656;7.188;2023-12-22T10:24:43;9.20;99.90
9941;DHT22;5009;50.656;7.188;2023-12-22T10:27:13;9.20;99.90
9941;DHT22;5009;50.656;7.188;2023-12-22T10:29:39;9.30;99.90
9941;DHT22;5009;50.656;7.188;2023-12-22T10:32:06;9.30;99.90
9941;DHT22;5009;50.656;7.188;2023-12-22T10:34:32;9.30;99.90
9941;DHT22;5009;50.656;7.188;2023-12-22T10:36:59;9.30;99.90
9941;DHT22;5009;50.656;7.188;2023-12-22T10:39:28;9.30;99.90
9941;DHT22;5009;50.656;7.188;2023-12-22T10:42:00;9.40;99.90
9941;DHT22;5009;50.656;7.188;2023-12-22T10:44:26;9.30;99.90
9941;DHT22;5009;50.656;7.188;2023-12-22T10:46:52;9.30;99.90
9941;DHT22;5009;50.656;7.188;2023-12-22T10:49:19;9.30;99.90
9941;DHT22;5009;50.656;7.188;2023-12-22T10:51:45;9.30;99.90
9941;DHT22;5009;50.656;7.188;2023-12-22T10:54:11;9.30;99.90
9941;DHT22;5009;50.656;7.188;2023-12-22T10:56:36;9.30;99.90
9941;DHT22;5009;50.656;7.188;2023-12-22T10:59:02;9.30;99.90
9941;DHT22;5009;50.656;7.188;2023-12-22T11:01:29;9.30;99.90
9941;DHT22;5009;50.656;7.188;2023-12-22T11:03:57;9.30;99.90
9941;DHT22;5009;50.656;7.188;2023-12-22T11:06:24;9.30;99.90
9941;DHT22;5009;50.656;7.188;2023-12-22T11:08:52;9.30;99.90
9941;DHT22;5009;50.656;7.188;2023-12-22T11:11:31;9.30;99.90
9941;DHT22;5009;50.656;7.188;2023-12-22T11:13:59;9.30;99.90
9941;DHT22;5009;50.656;7.188;2023-12-22T11:16:27;9.30;99.90
9941;DHT22;5009;50.656;7.188;2023-12-22T11:18:54;9.30;99.90
9941;DHT22;5009;50.656;7.188;2023-12-22T11:21:24;9.20;99.90
9941;DHT22;5009;50.656;7.188;2023-12-22T11:23:50;9.30;99.90
9941;DHT22;5009;50.656;7.188;2023-12-22T11:26:17;9.30;99.90
9941;DHT22;5009;50.656;7.188;2023-12-22T11:28:45;9.30;99.90
9941;DHT22;5009;50.656;7.188;2023-12-22T11:31:12;9.30;99.90
9941;DHT22;5009;50.656;7.188;2023-12-22T11:33:42;9.30;99.90
9941;DHT22;5009;50.656;7.188;2023-12-22T11:36:08;9.30;99.90
9941;DHT22;5009;50.656;7.188;2023-12-22T11:38:35;9.40;99.90
9941;DHT22;5009;50.656;7.188;2023-12-22T11:41:01;9.40;99.90
9941;DHT22;5009;50.656;7.188;2023-12-22T11:43:28;9.40;99.90
9941;DHT22;5009;50.656;7.188;2023-12-22T11:45:55;9.50;99.90
9941;DHT22;5009;50.656;7.188;2023-12-22T11:48:22;9.50;99.90
9941;DHT22;5009;50.656;7.188;2023-12-22T11:50:47;9.50;99.90
9941;DHT22;5009;50.656;7.188;2023-12-22T11:53:22;9.60;99.90
9941;DHT22;5009;50.656;7.188;2023-12-22T12:01:10;9.70;99.90
9941;DHT22;5009;50.656;7.188;2023-12-22T12:03:50;9.70;99.90
9941;DHT22;5009;50.656;7.188;2023-12-22T12:08:52;9.70;99.90
9941;DHT22;5009;50.656;7.188;2023-12-22T12:11:19;9.70;99.90
9941;DHT22;5009;50.656;7.188;2023-12-22T12:13:46;9.80;99.90
9941;DHT22;5009;50.656;7.188;2023-12-22T12:16:13;9.80;99.90
9941;DHT22;5009;50.656;7.188;2023-12-22T12:18:39;9.80;99.90
9941;DHT22;5009;50.656;7.188;2023-12-22T12:21:09;9.90;99.90
9941;DHT22;5009;50.656;7.188;2023-12-22T12:23:35;9.90;99.90
9941;DHT22;5009;50.656;7.188;2023-12-22T12:26:01;10.00;99.90
9941;DHT22;5009;50.656;7.188;2023-12-22T12:28:29;10.00;99.90
9941;DHT22;5009;50.656;7.188;2023-12-22T12:31:13;10.00;99.90
9941;DHT22;5009;50.656;7.188;2023-12-22T12:33:39;10.10;99.90
9941;DHT22;5009;50.656;7.188;2023-12-22T12:36:05;10.10;99.90
9941;DHT22;5009;50.656;7.188;2023-12-22T12:38:44;10.20;99.90
9941;DHT22;5009;50.656;7.188;2023-12-22T12:41:11;10.20;99.90
9941;DHT22;5009;50.656;7.188;2023-12-22T12:43:43;10.20;99.90
9941;DHT22;5009;50.656;7.188;2023-12-22T12:46:09;10.20;99.90
9941;DHT22;5009;50.656;7.188;2023-12-22T12:48:34;10.20;99.90
9941;DHT22;5009;50.656;7.188;2023-12-22T12:51:04;10.30;99.90
9941;DHT22;5009;50.656;7.188;2023-12-22T12:53:34;10.20;99.90
9941;DHT22;5009;50.656;7.188;2023-12-22T12:56:01;10.30;99.90
9941;DHT22;5009;50.656;7.188;2023-12-22T12:58:31;10.30;99.90
9941;DHT22;5009;50.656;7.188;2023-12-22T13:01:10;10.30;99.90
9941;DHT22;5009;50.656;7.188;2023-12-22T13:03:56;10.30;99.90
9941;DHT22;5009;50.656;7.188;2023-12-22T13:06:23;10.40;99.90
9941;DHT22;5009;50.656;7.188;2023-12-22T13:08:49;10.40;99.90
9941;DHT22;5009;50.656;7.188;2023-12-22T13:11:25;10.40;99.90
9941;DHT22;5009;50.656;7.188;2023-12-22T13:13:52;10.40;99.90
9941;DHT22;5009;50.656;7.188;2023-12-22T13:16:28;10.40;99.90
9941;DHT22;5009;50.656;7.188;2023-12-22T13:18:57;10.40;99.90
9941;DHT22;5009;50.656;7.188;2023-12-22T13:21:24;10.40;99.90
9941;DHT22;5009;50.656;7.188;2023-12-22T13:24:09;10.40;99.90
9941;DHT22;5009;50.656;7.188;2023-12-22T13:26:36;10.40;99.90
9941;DHT22;5009;50.656;7.188;2023-12-22T13:29:01;10.40;99.90
9941;DHT22;5009;50.656;7.188;2023-12-22T13:31:27;10.30;99.90
9941;DHT22;5009;50.656;7.188;2023-12-22T13:33:53;10.30;99.90
9941;DHT22;5009;50.656;7.188;2023-12-22T13:36:19;10.30;99.90
9941;DHT22;5009;50.656;7.188;2023-12-22T13:38:48;10.30;99.90
9941;DHT22;5009;50.656;7.188;2023-12-22T13:41:15;10.30;99.90
9941;DHT22;5009;50.656;7.188;2023-12-22T13:43:41;10.30;99.90
9941;DHT22;5009;50.656;7.188;2023-12-22T13:46:07;10.30;99.90
9941;DHT22;5009;50.656;7.188;2023-12-22T13:48:33;10.30;99.90
9941;DHT22;5009;50.656;7.188;2023-12-22T13:51:01;10.40;99.90
9941;DHT22;5009;50.656;7.188;2023-12-22T13:53:27;10.40;99.90
9941;DHT22;5009;50.656;7.188;2023-12-22T13:55:59;10.50;99.90
9941;DHT22;5009;50.656;7.188;2023-12-22T13:58:26;10.40;99.90
9941;DHT22;5009;50.656;7.188;2023-12-22T14:00:52;10.40;99.90
9941;DHT22;5009;50.656;7.188;2023-12-22T14:03:18;10.40;99.90
9941;DHT22;5009;50.656;7.188;2023-12-22T14:05:52;10.50;99.90
9941;DHT22;5009;50.656;7.188;2023-12-22T14:08:18;10.40;99.90
9941;DHT22;5009;50.656;7.188;2023-12-22T14:10:48;10.40;99.90
9941;DHT22;5009;50.656;7.188;2023-12-22T14:13:17;10.40;99.90
9941;DHT22;5009;50.656;7.188;2023-12-22T14:15:42;10.50;99.90
9941;DHT22;5009;50.656;7.188;2023-12-22T14:18:10;10.40;99.90
9941;DHT22;5009;50.656;7.188;2023-12-22T14:20:35;10.40;99.90
9941;DHT22;5009;50.656;7.188;2023-12-22T14:23:01;10.40;99.90
9941;DHT22;5009;50.656;7.188;2023-12-22T14:25:27;10.40;99.90
9941;DHT22;5009;50.656;7.188;2023-12-22T14:27:53;10.40;99.90
9941;DHT22;5009;50.656;7.188;2023-12-22T14:30:23;10.40;99.90
9941;DHT22;5009;50.656;7.188;2023-12-22T14:32:48;10.40;99.90
9941;DHT22;5009;50.656;7.188;2023-12-22T14:35:14;10.40;99.90
9941;DHT22;5009;50.656;7.188;2023-12-22T14:37:39;10.40;99.90
9941;DHT22;5009;50.656;7.188;2023-12-22T14:40:05;10.40;99.90
9941;DHT22;5009;50.656;7.188;2023-12-22T14:42:32;10.40;99.90
9941;DHT22;5009;50.656;7.188;2023-12-22T14:44:58;10.40;99.90
9941;DHT22;5009;50.656;7.188;2023-12-22T14:47:23;10.40;99.90
9941;DHT22;5009;50.656;7.188;2023-12-22T14:49:49;10.40;99.90
9941;DHT22;5009;50.656;7.188;2023-12-22T14:52:14;10.40;99.90
9941;DHT22;5009;50.656;7.188;2023-12-22T14:54:40;10.40;99.90
9941;DHT22;5009;50.656;7.188;2023-12-22T14:57:06;10.40;99.90
9941;DHT22;5009;50.656;7.188;2023-12-22T14:59:31;10.40;99.90
9941;DHT22;5009;50.656;7.188;2023-12-22T15:01:57;10.40;99.90
9941;DHT22;5009;50.656;7.188;2023-12-22T15:04:22;10.30;99.90
9941;DHT22;5009;50.656;7.188;2023-12-22T15:06:49;10.40;99.90
9941;DHT22;5009;50.656;7.188;2023-12-22T15:09:15;10.30;99.90
9941;DHT22;5009;50.656;7.188;2023-12-22T15:11:42;10.30;99.90
9941;DHT22;5009;50.656;7.188;2023-12-22T15:14:08;10.30;99.90
9941;DHT22;5009;50.656;7.188;2023-12-22T15:16:33;10.30;99.90
9941;DHT22;5009;50.656;7.188;2023-12-22T15:18:59;10.30;99.90
9941;DHT22;5009;50.656;7.188;2023-12-22T15:21:24;10.30;99.90
9941;DHT22;5009;50.656;7.188;2023-12-22T15:23:50;10.30;99.90
9941;DHT22;5009;50.656;7.188;2023-12-22T15:26:23;10.20;99.90
9941;DHT22;5009;50.656;7.188;2023-12-22T15:28:49;10.20;99.90
9941;DHT22;5009;50.656;7.188;2023-12-22T15:31:14;10.20;99.90
9941;DHT22;5009;50.656;7.188;2023-12-22T15:33:40;10.10;99.90
9941;DHT22;5009;50.656;7.188;2023-12-22T15:36:06;10.10;99.90
9941;DHT22;5009;50.656;7.188;2023-12-22T15:38:31;10.10;99.90
9941;DHT22;5009;50.656;7.188;2023-12-22T15:41:03;10.10;99.90
9941;DHT22;5009;50.656;7.188;2023-12-22T15:43:28;10.10;99.90
9941;DHT22;5009;50.656;7.188;2023-12-22T15:45:54;10.10;99.90
9941;DHT22;5009;50.656;7.188;2023-12-22T15:48:20;10.10;99.90
9941;DHT22;5009;50.656;7.188;2023-12-22T15:50:45;10.10;99.90
9941;DHT22;5009;50.656;7.188;2023-12-22T15:53:12;10.00;99.90
9941;DHT22;5009;50.656;7.188;2023-12-22T15:55:37;10.00;99.90
9941;DHT22;5009;50.656;7.188;2023-12-22T15:58:03;10.00;99.90
9941;DHT22;5009;50.656;7.188;2023-12-22T16:00:29;10.00;99.90
9941;DHT22;5009;50.656;7.188;2023-12-22T16:02:54;10.00;99.90
9941;DHT22;5009;50.656;7.188;2023-12-22T16:05:20;10.00;99.90
9941;DHT22;5009;50.656;7.188;2023-12-22T16:07:45;10.00;99.90
9941;DHT22;5009;50.656;7.188;2023-12-22T16:10:11;10.00;99.90
9941;DHT22;5009;50.656;7.188;2023-12-22T16:12:37;10.00;99.90
9941;DHT22;5009;50.656;7.188;2023-12-22T16:15:03;10.00;99.90
9941;DHT22;5009;50.656;7.188;2023-12-22T16:17:29;10.00;99.90
9941;DHT22;5009;50.656;7.188;2023-12-22T16:19:54;10.00;99.90
9941;DHT22;5009;50.656;7.188;2023-12-22T16:22:20;10.00;99.90
9941;DHT22;5009;50.656;7.188;2023-12-22T16:24:46;10.00;99.90
9941;DHT22;5009;50.656;7.188;2023-12-22T16:27:11;10.00;99.90
9941;DHT22;5009;50.656;7.188;2023-12-22T16:29:40;10.00;99.90
9941;DHT22;5009;50.656;7.188;2023-12-22T16:32:06;10.00;99.90
9941;DHT22;5009;50.656;7.188;2023-12-22T16:34:31;10.00;99.90
9941;DHT22;5009;50.656;7.188;2023-12-22T16:36:57;10.00;99.90
9941;DHT22;5009;50.656;7.188;2023-12-22T16:39:23;10.00;99.90
9941;DHT22;5009;50.656;7.188;2023-12-22T16:41:49;10.00;99.90
9941;DHT22;5009;50.656;7.188;2023-12-22T16:44:15;10.00;99.90
9941;DHT22;5009;50.656;7.188;2023-12-22T16:46:44;10.00;99.90
9941;DHT22;5009;50.656;7.188;2023-12-22T16:49:09;10.00;99.90
9941;DHT22;5009;50.656;7.188;2023-12-22T16:51:35;10.00;99.90
9941;DHT22;5009;50.656;7.188;2023-12-22T16:54:01;10.00;99.90
9941;DHT22;5009;50.656;7.188;2023-12-22T16:56:28;10.00;99.90
9941;DHT22;5009;50.656;7.188;2023-12-22T16:58:53;10.00;99.90
9941;DHT22;5009;50.656;7.188;2023-12-22T17:01:19;10.00;99.90
9941;DHT22;5009;50.656;7.188;2023-12-22T17:03:44;10.00;99.90
9941;DHT22;5009;50.656;7.188;2023-12-22T17:06:10;10.00;99.90
9941;DHT22;5009;50.656;7.188;2023-12-22T17:08:36;10.00;99.90
9941;DHT22;5009;50.656;7.188;2023-12-22T17:11:01;10.00;99.90
9941;DHT22;5009;50.656;7.188;2023-12-22T17:13:27;9.90;99.90
9941;DHT22;5009;50.656;7.188;2023-12-22T17:15:52;9.90;99.90
9941;DHT22;5009;50.656;7.188;2023-12-22T17:18:18;9.90;99.90
9941;DHT22;5009;50.656;7.188;2023-12-22T17:20:43;9.90;99.90
9941;DHT22;5009;50.656;7.188;2023-12-22T17:23:09;9.90;99.90
9941;DHT22;5009;50.656;7.188;2023-12-22T17:25:34;9.90;99.90
9941;DHT22;5009;50.656;7.188;2023-12-22T17:28:00;9.90;99.90
9941;DHT22;5009;50.656;7.188;2023-12-22T17:30:25;9.90;99.90
9941;DHT22;5009;50.656;7.188;2023-12-22T17:32:53;9.90;99.90
9941;DHT22;5009;50.656;7.188;2023-12-22T17:35:18;9.80;99.90
9941;DHT22;5009;50.656;7.188;2023-12-22T17:37:44;9.90;99.90
9941;DHT22;5009;50.656;7.188;2023-12-22T17:40:10;9.90;99.90
9941;DHT22;5009;50.656;7.188;2023-12-22T17:42:35;9.90;99.90
9941;DHT22;5009;50.656;7.188;2023-12-22T17:45:02;9.90;99.90
9941;DHT22;5009;50.656;7.188;2023-12-22T17:47:27;9.90;99.90
9941;DHT22;5009;50.656;7.188;2023-12-22T17:49:53;9.90;99.90
9941;DHT22;5009;50.656;7.188;2023-12-22T17:52:18;9.90;99.90
9941;DHT22;5009;50.656;7.188;2023-12-22T17:54:44;9.90;99.90
9941;DHT22;5009;50.656;7.188;2023-12-22T17:57:10;9.90;99.90
9941;DHT22;5009;50.656;7.188;2023-12-22T17:59:39;9.90;99.90
9941;DHT22;5009;50.656;7.188;2023-12-22T18:02:07;9.90;99.90
9941;DHT22;5009;50.656;7.188;2023-12-22T18:04:32;9.90;99.90
9941;DHT22;5009;50.656;7.188;2023-12-22T18:06:58;9.90;99.90
9941;DHT22;5009;50.656;7.188;2023-12-22T18:09:23;9.90;99.90
9941;DHT22;5009;50.656;7.188;2023-12-22T18:11:49;10.00;99.90
9941;DHT22;5009;50.656;7.188;2023-12-22T18:14:14;10.00;99.90
9941;DHT22;5009;50.656;7.188;2023-12-22T18:16:41;10.00;99.90
9941;DHT22;5009;50.656;7.188;2023-12-22T18:19:07;10.00;99.90
9941;DHT22;5009;50.656;7.188;2023-12-22T18:21:33;10.00;99.90
9941;DHT22;5009;50.656;7.188;2023-12-22T18:23:59;10.00;99.90
9941;DHT22;5009;50.656;7.188;2023-12-22T18:26:24;10.00;99.90
9941;DHT22;5009;50.656;7.188;2023-12-22T18:28:50;10.00;99.90
9941;DHT22;5009;50.656;7.188;2023-12-22T18:31:16;10.00;99.90
9941;DHT22;5009;50.656;7.188;2023-12-22T18:33:42;10.00;99.90
9941;DHT22;5009;50.656;7.188;2023-12-22T18:36:08;10.10;99.90
9941;DHT22;5009;50.656;7.188;2023-12-22T18:38:33;10.10;99.90
9941;DHT22;5009;50.656;7.188;2023-12-22T18:40:59;10.10;99.90
9941;DHT22;5009;50.656;7.188;2023-12-22T18:43:24;10.10;99.90
9941;DHT22;5009;50.656;7.188;2023-12-22T18:45:50;10.10;99.90
9941;DHT22;5009;50.656;7.188;2023-12-22T18:48:16;10.10;99.90
9941;DHT22;5009;50.656;7.188;2023-12-22T18:50:42;10.10;99.90
9941;DHT22;5009;50.656;7.188;2023-12-22T18:53:07;10.10;99.90
9941;DHT22;5009;50.656;7.188;2023-12-22T18:55:34;10.10;99.90
9941;DHT22;5009;50.656;7.188;2023-12-22T18:58:00;10.10;99.90
9941;DHT22;5009;50.656;7.188;2023-12-22T19:00:25;10.10;99.90
9941;DHT22;5009;50.656;7.188;2023-12-22T19:02:51;10.10;99.90
9941;DHT22;5009;50.656;7.188;2023-12-22T19:05:18;10.10;99.90
9941;DHT22;5009;50.656;7.188;2023-12-22T19:07:43;10.10;99.90
9941;DHT22;5009;50.656;7.188;2023-12-22T19:10:09;10.10;99.90
9941;DHT22;5009;50.656;7.188;2023-12-22T19:12:35;10.10;99.90
9941;DHT22;5009;50.656;7.188;2023-12-22T19:15:02;10.10;99.90
9941;DHT22;5009;50.656;7.188;2023-12-22T19:17:27;10.10;99.90
9941;DHT22;5009;50.656;7.188;2023-12-22T19:19:53;10.10;99.90
9941;DHT22;5009;50.656;7.188;2023-12-22T19:22:19;10.10;99.90
9941;DHT22;5009;50.656;7.188;2023-12-22T19:24:45;10.10;99.90
9941;DHT22;5009;50.656;7.188;2023-12-22T19:27:10;10.00;99.90
9941;DHT22;5009;50.656;7.188;2023-12-22T19:29:36;10.00;99.90
9941;DHT22;5009;50.656;7.188;2023-12-22T19:32:02;10.00;99.90
9941;DHT22;5009;50.656;7.188;2023-12-22T19:34:28;10.00;99.90
9941;DHT22;5009;50.656;7.188;2023-12-22T19:36:55;10.00;99.90
9941;DHT22;5009;50.656;7.188;2023-12-22T19:39:20;10.00;99.90
9941;DHT22;5009;50.656;7.188;2023-12-22T19:41:46;10.00;99.90
9941;DHT22;5009;50.656;7.188;2023-12-22T19:44:11;10.00;99.90
9941;DHT22;5009;50.656;7.188;2023-12-22T19:46:37;10.00;99.90
9941;DHT22;5009;50.656;7.188;2023-12-22T19:49:03;10.00;99.90
9941;DHT22;5009;50.656;7.188;2023-12-22T19:51:28;10.10;99.90
9941;DHT22;5009;50.656;7.188;2023-12-22T19:53:54;10.00;99.90
9941;DHT22;5009;50.656;7.188;2023-12-22T19:56:20;10.10;99.90
9941;DHT22;5009;50.656;7.188;2023-12-22T19:58:45;10.10;99.90
9941;DHT22;5009;50.656;7.188;2023-12-22T20:01:11;10.10;99.90
9941;DHT22;5009;50.656;7.188;2023-12-22T20:03:37;10.00;99.90
9941;DHT22;5009;50.656;7.188;2023-12-22T20:06:02;10.00;99.90
9941;DHT22;5009;50.656;7.188;2023-12-22T20:08:30;10.00;99.90
9941;DHT22;5009;50.656;7.188;2023-12-22T20:10:55;10.00;99.90
9941;DHT22;5009;50.656;7.188;2023-12-22T20:13:21;10.00;99.90
9941;DHT22;5009;50.656;7.188;2023-12-22T20:15:47;10.00;99.90
9941;DHT22;5009;50.656;7.188;2023-12-22T20:18:14;10.00;99.90
9941;DHT22;5009;50.656;7.188;2023-12-22T20:20:39;10.00;99.90
9941;DHT22;5009;50.656;7.188;2023-12-22T20:23:05;10.00;99.90
9941;DHT22;5009;50.656;7.188;2023-12-22T20:25:32;10.00;99.90
9941;DHT22;5009;50.656;7.188;2023-12-22T20:27:58;10.00;99.90
9941;DHT22;5009;50.656;7.188;2023-12-22T20:30:25;10.00;99.90
9941;DHT22;5009;50.656;7.188;2023-12-22T20:32:51;9.90;99.90
9941;DHT22;5009;50.656;7.188;2023-12-22T20:35:16;9.90;99.90
9941;DHT22;5009;50.656;7.188;2023-12-22T20:37:43;9.90;99.90
9941;DHT22;5009;50.656;7.188;2023-12-22T20:40:09;9.90;99.90
9941;DHT22;5009;50.656;7.188;2023-12-22T20:42:35;9.80;99.90
9941;DHT22;5009;50.656;7.188;2023-12-22T20:45:00;9.80;99.90
9941;DHT22;5009;50.656;7.188;2023-12-22T20:47:27;9.80;99.90
9941;DHT22;5009;50.656;7.188;2023-12-22T20:49:52;9.80;99.90
9941;DHT22;5009;50.656;7.188;2023-12-22T20:52:19;9.80;99.90
9941;DHT22;5009;50.656;7.188;2023-12-22T20:54:44;9.80;99.90
9941;DHT22;5009;50.656;7.188;2023-12-22T20:57:10;9.80;99.90
9941;DHT22;5009;50.656;7.188;2023-12-22T20:59:36;9.80;99.90
9941;DHT22;5009;50.656;7.188;2023-12-22T21:02:03;9.80;99.90
9941;DHT22;5009;50.656;7.188;2023-12-22T21:04:30;9.80;99.90
9941;DHT22;5009;50.656;7.188;2023-12-22T21:06:55;9.80;99.90